Time;durP1;ratioP1;P1;durP2;ratioP2;P2;SDS_P1;SDS_P2;PMS_P1;PMS_P2;Temp;Humidity;BMP_temperature;BMP_pressure;BME280_temperature;BME280_humidity;BME280_pressure;Samples;Min_cycle;Max_cycle;Signal;HPM_P1;HPM_P2
2023/04/07 00:02:25;;;;;;;84.53;44.58;;;;;;;7.13;100.00;101337.66;5055609;28;20511;-56
2023/04/07 00:04:51;;;;;;;79.72;44.92;;;;;;;7.13;100.00;101340.22;5055955;28;20021;-55
2023/04/07 00:07:16;;;;;;;76.68;44.88;;;;;;;7.12;100.00;101337.56;5054944;28;20035;-56
2023/04/07 00:09:41;;;;;;;91.40;45.80;;;;;;;7.08;100.00;101339.09;5056056;28;20025;-56
2023/04/07 00:12:08;;;;;;;81.55;45.65;;;;;;;7.08;100.00;101336.53;5055676;28;20415;-55
2023/04/07 00:14:33;;;;;;;87.05;47.35;;;;;;;7.07;100.00;101342.44;5054875;28;20108;-55
2023/04/07 00:16:58;;;;;;;75.35;45.95;;;;;;;7.06;100.00;101338.13;5055790;28;20082;-56
2023/04/07 00:19:23;;;;;;;67.35;41.00;;;;;;;7.00;100.00;101338.69;5055344;28;20520;-56
2023/04/07 00:21:49;;;;;;;67.50;41.80;;;;;;;7.01;100.00;101342.13;5055075;28;20425;-55
2023/04/07 00:24:14;;;;;;;67.43;41.50;;;;;;;6.99;100.00;101348.88;5055831;28;20420;-56
2023/04/07 00:26:39;;;;;;;67.57;42.22;;;;;;;6.99;100.00;101338.63;5055250;28;20017;-56
2023/04/07 00:29:05;;;;;;;70.55;40.50;;;;;;;6.97;100.00;101343.69;5054907;28;20392;-56
2023/04/07 00:31:30;;;;;;;67.13;40.88;;;;;;;6.96;100.00;101336.78;5055231;28;20396;-55
2023/04/07 00:33:56;;;;;;;67.28;41.80;;;;;;;6.97;100.00;101341.13;5055410;28;20380;-56
2023/04/07 00:36:21;;;;;;;66.70;40.13;;;;;;;6.95;100.00;101341.84;5054555;28;20033;-54
2023/04/07 00:38:47;;;;;;;67.53;39.28;;;;;;;6.92;100.00;101335.72;5055441;28;20145;-56
2023/04/07 00:41:12;;;;;;;57.67;37.97;;;;;;;6.89;100.00;101335.59;5055428;28;20025;-55
2023/04/07 00:43:37;;;;;;;59.83;36.28;;;;;;;6.87;100.00;101336.31;5053762;28;20016;-55
2023/04/07 00:46:03;;;;;;;52.47;32.10;;;;;;;6.84;100.00;101334.47;5055294;28;20049;-55
2023/04/07 00:48:28;;;;;;;53.03;30.15;;;;;;;6.83;100.00;101335.25;5054132;28;20434;-56
2023/04/07 00:50:53;;;;;;;47.13;27.83;;;;;;;6.81;100.00;101341.09;5055292;28;20025;-55
2023/04/07 00:53:19;;;;;;;40.53;27.75;;;;;;;6.79;100.00;101338.47;5054960;28;20032;-56
2023/04/07 00:55:45;;;;;;;46.30;29.17;;;;;;;6.77;100.00;101345.19;5054527;28;20460;-54
2023/04/07 00:58:10;;;;;;;48.13;29.63;;;;;;;6.77;100.00;101347.75;5054942;28;20025;-55
2023/04/07 01:00:44;;;;;;;43.47;29.67;;;;;;;6.77;100.00;101345.19;5054763;28;20104;-55
2023/04/07 01:03:16;;;;;;;52.50;28.80;;;;;;;6.75;100.00;101332.28;5053889;28;20056;-55
2023/04/07 01:05:58;;;;;;;47.10;30.73;;;;;;;6.75;100.00;101341.63;5054823;28;20362;-56
2023/04/07 01:08:43;;;;;;;49.13;31.77;;;;;;;6.75;100.00;101339.97;5054389;28;20376;-56
2023/04/07 01:11:17;;;;;;;45.08;30.60;;;;;;;6.74;100.00;101340.78;5054051;28;20036;-56
2023/04/07 01:13:48;;;;;;;44.03;28.42;;;;;;;6.71;100.00;101337.16;5054941;28;20033;-56
2023/04/07 01:16:21;;;;;;;47.03;28.98;;;;;;;6.70;100.00;101340.50;5054899;28;20029;-56
2023/04/07 01:18:51;;;;;;;44.50;28.38;;;;;;;6.69;100.00;101334.53;5053898;28;20472;-55
2023/04/07 01:21:17;;;;;;;42.47;28.02;;;;;;;6.69;100.00;101343.91;5054251;28;20021;-56
2023/04/07 01:24:25;;;;;;;49.43;28.13;;;;;;;6.72;100.00;101338.94;5053689;28;20491;-56
2023/04/07 01:26:51;;;;;;;40.63;27.48;;;;;;;6.69;100.00;101349.03;5054397;28;20031;-55
2023/04/07 01:29:34;;;;;;;42.58;27.98;;;;;;;6.71;100.00;101340.63;5054215;28;20028;-55
2023/04/07 01:32:03;;;;;;;44.08;24.75;;;;;;;6.65;100.00;101344.50;5053621;28;20369;-55
2023/04/07 01:34:30;;;;;;;40.25;24.90;;;;;;;6.65;100.00;101357.31;5053901;28;20025;-55
2023/04/07 01:36:57;;;;;;;34.47;22.33;;;;;;;6.65;100.00;101355.66;5054368;28;20033;-55
2023/04/07 01:39:25;;;;;;;38.97;22.33;;;;;;;6.62;100.00;101346.91;5053409;28;20104;-56
2023/04/07 01:41:52;;;;;;;31.45;18.33;;;;;;;6.59;100.00;101356.19;5054083;28;20040;-56
2023/04/07 01:44:19;;;;;;;26.93;16.57;;;;;;;6.55;100.00;101354.25;5053973;28;20040;-55
2023/04/07 01:46:45;;;;;;;27.30;16.80;;;;;;;6.54;100.00;101354.19;5053350;28;20040;-56
2023/04/07 01:49:12;;;;;;;26.52;15.30;;;;;;;6.52;100.00;101359.22;5054151;28;20032;-56
2023/04/07 01:51:38;;;;;;;23.77;13.75;;;;;;;6.50;100.00;101359.94;5053168;28;20028;-56
2023/04/07 01:54:04;;;;;;;21.42;12.98;;;;;;;6.48;100.00;101359.88;5053864;28;20108;-56
2023/04/07 01:56:29;;;;;;;23.02;13.13;;;;;;;6.47;100.00;101368.34;5052970;28;20064;-56
2023/04/07 01:58:55;;;;;;;23.75;13.27;;;;;;;6.46;100.00;101369.13;5053060;28;20786;-55
2023/04/07 02:01:20;;;;;;;23.05;13.52;;;;;;;6.44;100.00;101368.16;5053672;28;20104;-56
2023/04/07 02:03:53;;;;;;;22.40;13.07;;;;;;;6.44;100.00;101375.84;5053619;28;20048;-56
2023/04/07 02:06:23;;;;;;;19.77;12.85;;;;;;;6.43;100.00;101382.66;5052804;28;20051;-55
2023/04/07 02:08:55;;;;;;;26.83;13.82;;;;;;;6.46;100.00;101379.38;5053910;28;20056;-55
2023/04/07 02:11:21;;;;;;;24.27;13.57;;;;;;;6.46;100.00;101375.94;5053618;28;20060;-55
2023/04/07 02:13:48;;;;;;;23.55;13.90;;;;;;;6.46;100.00;101375.94;5052948;28;20037;-56
2023/04/07 02:16:15;;;;;;;25.33;13.15;;;;;;;6.49;100.00;101379.53;5054008;28;20028;-56
2023/04/07 02:18:42;;;;;;;25.30;13.45;;;;;;;6.48;100.00;101382.91;5053577;28;20104;-56
2023/04/07 02:21:09;;;;;;;24.13;13.00;;;;;;;6.49;100.00;101382.09;5052972;28;20029;-56
2023/04/07 02:23:35;;;;;;;26.05;13.60;;;;;;;6.50;100.00;101378.75;5053379;28;20036;-56
2023/04/07 02:26:00;;;;;;;24.13;13.02;;;;;;;6.48;100.00;101377.81;5053392;28;20025;-55
2023/04/07 02:28:25;;;;;;;27.85;14.00;;;;;;;6.47;100.00;101373.47;5052385;28;20521;-55
2023/04/07 02:30:51;;;;;;;25.67;13.45;;;;;;;6.46;100.00;101381.94;5053462;28;20021;-56
2023/04/07 02:33:16;;;;;;;27.73;14.25;;;;;;;6.46;100.00;101375.94;5053083;28;20028;-56
2023/04/07 02:35:41;;;;;;;22.98;13.75;;;;;;;6.43;100.00;101374.09;5052664;28;20025;-55
2023/04/07 02:38:06;;;;;;;25.50;14.07;;;;;;;6.43;100.00;101366.41;5053023;28;20036;-56
2023/04/07 02:40:32;;;;;;;23.10;14.43;;;;;;;6.42;100.00;101367.22;5052857;28;20423;-55
2023/04/07 02:42:57;;;;;;;28.95;15.00;;;;;;;6.41;100.00;101370.56;5052230;28;20033;-56
2023/04/07 02:45:23;;;;;;;30.40;14.80;;;;;;;6.42;100.00;101369.78;5052665;28;20468;-56
2023/04/07 02:47:48;;;;;;;21.77;14.75;;;;;;;6.44;100.00;101370.72;5053199;28;20142;-56
2023/04/07 02:50:14;;;;;;;27.20;14.85;;;;;;;6.43;100.00;101368.97;5052378;28;20056;-56
2023/04/07 02:52:39;;;;;;;27.17;15.23;;;;;;;6.43;100.00;101368.97;5052825;28;20380;-55
2023/04/07 02:55:06;;;;;;;25.70;14.68;;;;;;;6.42;100.00;101372.34;5052318;28;20381;-56
2023/04/07 02:57:31;;;;;;;23.80;14.55;;;;;;;6.42;100.00;101369.78;5052497;28;20060;-56
2023/04/07 02:59:57;;;;;;;25.38;14.48;;;;;;;6.43;100.00;101371.53;5052900;28;20110;-56
2023/04/07 03:02:25;;;;;;;29.23;14.85;;;;;;;6.41;100.00;101368.00;5051790;28;20082;-56
2023/04/07 03:04:52;;;;;;;24.60;14.20;;;;;;;6.43;100.00;101374.09;5052806;28;20052;-56
2023/04/07 03:07:17;;;;;;;29.30;15.07;;;;;;;6.42;100.00;101372.34;5052217;28;20104;-56
2023/04/07 03:09:43;;;;;;;26.65;14.35;;;;;;;6.44;100.00;101375.84;5051888;28;20182;-56
2023/04/07 03:12:08;;;;;;;33.78;14.63;;;;;;;6.45;100.00;101367.38;5052688;28;20029;-55
2023/04/07 03:14:33;;;;;;;25.10;14.00;;;;;;;6.44;100.00;101370.72;5052332;28;20067;-56
2023/04/07 03:16:58;;;;;;;24.75;13.55;;;;;;;6.45;100.00;101372.50;5051952;28;20029;-56
2023/04/07 03:19:24;;;;;;;24.02;13.88;;;;;;;6.45;100.00;101372.50;5052583;28;20021;-56
2023/04/07 03:21:49;;;;;;;21.17;13.60;;;;;;;6.42;100.00;101368.09;5052786;28;20036;-56
2023/04/07 03:24:15;;;;;;;22.65;13.27;;;;;;;6.41;100.00;101375.69;5051889;28;20013;-56
2023/04/07 03:26:40;;;;;;;26.95;12.63;;;;;;;6.41;100.00;101375.69;5052731;28;20029;-55
2023/04/07 03:29:05;;;;;;;23.35;12.98;;;;;;;6.41;100.00;101378.25;5052437;28;20469;-57
2023/04/07 03:31:31;;;;;;;33.60;14.25;;;;;;;6.41;100.00;101374.00;5051650;28;20021;-56
2023/04/07 03:33:56;;;;;;;25.58;13.35;;;;;;;6.40;100.00;101379.03;5052948;28;20047;-55
2023/04/07 03:36:21;;;;;;;22.70;12.73;;;;;;;6.41;100.00;101370.56;5052140;28;20134;-53
2023/04/07 03:38:47;;;;;;;19.88;12.40;;;;;;;6.39;100.00;101377.25;5051662;28;20035;-55
2023/04/07 03:41:12;;;;;;;27.55;12.23;;;;;;;6.39;100.00;101377.25;5052670;28;20098;-56
2023/04/07 03:43:37;;;;;;;24.88;12.57;;;;;;;6.38;100.00;101380.66;5052281;28;20104;-56
2023/04/07 03:46:03;;;;;;;23.70;12.82;;;;;;;6.40;100.00;101379.03;5051876;28;20346;-56
2023/04/07 03:48:28;;;;;;;30.48;13.90;;;;;;;6.41;100.00;101376.56;5051996;28;20453;-56
2023/04/07 03:50:53;;;;;;;27.00;15.15;;;;;;;6.42;100.00;101382.56;5052357;28;20456;-56
2023/04/07 03:53:19;;;;;;;28.40;15.77;;;;;;;6.41;100.00;101383.38;5051294;28;20025;-56
2023/04/07 03:55:45;;;;;;;30.98;15.77;;;;;;;6.42;100.00;101390.25;5052319;28;20025;-56
2023/04/07 03:58:10;;;;;;;31.42;17.38;;;;;;;6.41;100.00;101391.03;5051990;28;20493;-56
2023/04/07 04:00:36;;;;;;;34.33;17.40;;;;;;;6.41;100.00;101391.91;5051777;28;20048;-56
2023/04/07 04:03:01;;;;;;;31.23;16.52;;;;;;;6.38;100.00;101386.63;5052248;28;20037;-57
2023/04/07 04:05:27;;;;;;;37.33;18.85;;;;;;;6.40;100.00;101389.28;5051428;28;20048;-56
2023/04/07 04:07:52;;;;;;;34.55;20.45;;;;;;;6.37;100.00;101394.25;5052102;28;20120;-56
2023/04/07 04:10:18;;;;;;;39.42;21.15;;;;;;;6.37;100.00;101387.44;5052013;28;20051;-56
2023/04/07 04:12:43;;;;;;;45.15;21.65;;;;;;;6.28;100.00;101386.94;5051481;28;20021;-56
2023/04/07 04:15:09;;;;;;;40.50;22.02;;;;;;;6.30;100.00;101384.44;5052277;28;20032;-55
2023/04/07 04:17:35;;;;;;;41.50;22.25;;;;;;;6.26;100.00;101391.06;5051980;28;20384;-56
2023/04/07 04:20:00;;;;;;;44.97;21.88;;;;;;;6.21;100.00;101389.94;5053535;28;20051;-56
2023/04/07 04:22:26;;;;;;;53.17;23.42;;;;;;;6.13;100.00;101389.50;5055525;28;20441;-56
2023/04/07 04:24:51;;;;;;;41.22;22.95;;;;;;;6.08;100.00;101391.81;5055707;28;20448;-55
2023/04/07 04:27:16;;;;;;;44.90;22.95;;;;;;;6.04;100.00;101391.53;5054611;28;20029;-56
2023/04/07 04:29:41;;;;;;;41.75;24.00;;;;;;;5.90;100.00;101386.50;5055825;28;20025;-56
2023/04/07 04:32:07;;;;;;;46.92;24.27;;;;;;;5.92;100.00;101391.69;5055760;28;20025;-56
2023/04/07 04:34:32;;;;;;;46.45;23.50;;;;;;;5.83;100.00;101392.03;5054381;28;20024;-56
2023/04/07 04:36:57;;;;;;;56.75;25.02;;;;;;;5.78;100.00;101393.44;5055414;28;20031;-54
2023/04/07 04:39:22;;;;;;;46.75;23.52;;;;;;;5.72;100.00;101394.00;5055131;28;20380;-55
2023/04/07 04:41:48;;;;;;;55.42;23.92;;;;;;;5.67;100.00;101394.50;5054460;28;20029;-56
2023/04/07 04:44:13;;;;;;;46.50;23.63;;;;;;;5.59;100.00;101404.28;5055272;28;20021;-56
2023/04/07 04:46:38;;;;;;;46.80;22.40;;;;;;;5.52;100.00;101403.03;5055100;28;20024;-56
2023/04/07 04:49:05;;;;;;;44.85;23.63;;;;;;;5.48;100.00;101401.09;5054626;28;20082;-56
2023/04/07 04:51:30;;;;;;;46.85;24.33;;;;;;;5.51;100.00;101405.50;5054783;28;20504;-56
2023/04/07 04:53:55;;;;;;;56.35;25.50;;;;;;;5.55;100.00;101410.91;5055018;28;20050;-55
2023/04/07 04:56:21;;;;;;;49.40;24.95;;;;;;;5.52;100.00;101418.38;5053991;28;20017;-56
2023/04/07 04:58:46;;;;;;;57.65;25.10;;;;;;;5.53;100.00;101422.72;5054977;28;20033;-56
2023/04/07 05:01:12;;;;;;;57.22;26.17;;;;;;;5.60;100.00;101424.84;5055282;28;20171;-56
2023/04/07 05:03:37;;;;;;;58.00;24.88;;;;;;;5.67;100.00;101423.53;5053727;28;20068;-55
2023/04/07 05:06:03;;;;;;;58.00;24.73;;;;;;;5.72;100.00;101426.34;5054931;28;20056;-56
2023/04/07 05:08:28;;;;;;;51.40;23.63;;;;;;;5.76;100.00;101418.06;5054548;28;20017;-56
2023/04/07 05:10:54;;;;;;;56.42;25.15;;;;;;;5.82;100.00;101427.78;5054169;28;20028;-56
2023/04/07 05:13:20;;;;;;;64.68;24.17;;;;;;;5.84;100.00;101431.31;5054576;28;20028;-56
2023/04/07 05:15:45;;;;;;;58.92;25.35;;;;;;;5.87;100.00;101426.38;5053828;28;20021;-56
2023/04/07 05:18:11;;;;;;;62.22;25.52;;;;;;;5.91;100.00;101426.66;5054736;28;20021;-56
2023/04/07 05:20:36;;;;;;;62.55;26.05;;;;;;;5.94;100.00;101429.38;5054288;28;20025;-56
2023/04/07 05:23:02;;;;;;;61.50;25.52;;;;;;;5.97;100.00;101425.22;5053722;28;20225;-56
2023/04/07 05:25:27;;;;;;;61.85;26.27;;;;;;;5.99;100.00;101431.34;5054158;28;20033;-56
2023/04/07 05:27:52;;;;;;;63.83;26.25;;;;;;;6.02;100.00;101434.97;5054660;28;20380;-56
2023/04/07 05:30:18;;;;;;;54.10;25.98;;;;;;;6.05;100.00;101445.34;5053889;28;20029;-56
2023/04/07 05:32:43;;;;;;;61.88;27.05;;;;;;;6.06;100.00;101438.59;5054646;28;20049;-55
2023/04/07 05:35:09;;;;;;;71.38;26.73;;;;;;;6.10;100.00;101443.06;5054462;28;20028;-55
2023/04/07 05:37:34;;;;;;;59.30;25.67;;;;;;;6.08;100.00;101440.44;5053238;28;20445;-56
2023/04/07 05:40:00;;;;;;;54.33;26.35;;;;;;;6.13;100.00;101442.38;5054165;28;20025;-56
2023/04/07 05:42:25;;;;;;;60.53;25.80;;;;;;;6.12;100.00;101438.94;5053752;28;20090;-55
2023/04/07 05:44:51;;;;;;;53.88;25.65;;;;;;;6.16;100.00;101446.00;5053532;28;20016;-56
2023/04/07 05:47:16;;;;;;;50.75;25.65;;;;;;;6.17;100.00;101447.75;5053999;28;20013;-56
2023/04/07 05:49:44;;;;;;;62.58;26.23;;;;;;;6.21;100.00;101439.47;5054087;28;20102;-56
2023/04/07 05:52:11;;;;;;;64.03;25.90;;;;;;;6.21;100.00;101443.69;5053269;28;20028;-56
2023/04/07 05:54:36;;;;;;;66.72;27.17;;;;;;;6.24;100.00;101452.41;5053622;28;20476;-56
2023/04/07 05:57:02;;;;;;;59.78;27.15;;;;;;;6.25;100.00;101454.19;5053849;28;20052;-56
2023/04/07 05:59:27;;;;;;;63.10;27.77;;;;;;;6.27;100.00;101451.72;5053017;28;20029;-56
2023/04/07 06:01:53;;;;;;;51.90;26.00;;;;;;;6.29;100.00;101450.13;5053546;28;20037;-55
2023/04/07 06:04:18;;;;;;;54.65;27.17;;;;;;;6.31;100.00;101451.09;5053591;28;20029;-56
2023/04/07 06:06:43;;;;;;;62.10;26.33;;;;;;;6.36;100.00;101456.47;5052973;28;20023;-55
2023/04/07 06:09:09;;;;;;;63.13;27.35;;;;;;;6.34;100.00;101456.41;5053650;28;20025;-56
2023/04/07 06:11:34;;;;;;;55.28;26.48;;;;;;;6.40;100.00;101460.97;5053260;28;20029;-56
2023/04/07 06:13:59;;;;;;;62.85;27.65;;;;;;;6.40;100.00;101461.88;5052773;28;20021;-56
2023/04/07 06:16:25;;;;;;;62.75;27.98;;;;;;;6.43;100.00;101463.72;5053290;28;20025;-56
2023/04/07 06:18:50;;;;;;;59.20;27.48;;;;;;;6.46;100.00;101471.56;5053122;28;20025;-56
2023/04/07 06:21:15;;;;;;;51.25;27.25;;;;;;;6.51;100.00;101470.13;5052682;28;20017;-56
2023/04/07 06:23:41;;;;;;;61.08;27.70;;;;;;;6.54;100.00;101477.97;5053309;28;20029;-56
2023/04/07 06:26:10;;;;;;;63.50;29.10;;;;;;;6.59;100.00;101474.00;5052753;28;20017;-56
2023/04/07 06:28:35;;;;;;;58.33;29.25;;;;;;;6.59;100.00;101483.38;5053193;28;20086;-56
2023/04/07 06:31:01;;;;;;;59.67;28.92;;;;;;;6.62;100.00;101477.53;5053443;28;20376;-56
2023/04/07 06:33:27;;;;;;;56.15;28.17;;;;;;;6.66;100.00;101480.38;5052168;28;20037;-57
2023/04/07 06:35:52;;;;;;;60.95;29.55;;;;;;;6.68;100.00;101477.91;5053198;28;20025;-56
2023/04/07 06:38:18;;;;;;;61.45;30.15;;;;;;;6.74;100.00;101483.34;5052840;28;20530;-57
2023/04/07 06:40:43;;;;;;;60.72;29.60;;;;;;;6.77;100.00;101486.09;5052261;28;20029;-56
2023/04/07 06:43:08;;;;;;;60.28;30.48;;;;;;;6.78;100.00;101484.38;5052570;28;20029;-56
2023/04/07 06:45:34;;;;;;;53.72;29.13;;;;;;;6.82;100.00;101492.34;5052805;28;20024;-56
2023/04/07 06:47:59;;;;;;;55.67;28.80;;;;;;;6.87;100.00;101490.91;5052225;28;20427;-56
2023/04/07 06:50:24;;;;;;;54.80;29.38;;;;;;;6.88;100.00;101496.91;5052722;28;20021;-56
2023/04/07 06:52:50;;;;;;;54.47;29.52;;;;;;;6.83;100.00;101501.81;5052877;28;20460;-56
2023/04/07 06:55:15;;;;;;;58.83;29.35;;;;;;;6.86;100.00;101499.41;5051747;28;20025;-56
2023/04/07 06:57:40;;;;;;;58.53;29.38;;;;;;;6.90;100.00;101496.19;5052958;28;20040;-55
2023/04/07 07:00:06;;;;;;;53.53;29.30;;;;;;;7.02;100.00;101506.25;5053009;28;20032;-55
2023/04/07 07:02:32;;;;;;;51.92;28.98;;;;;;;7.08;100.00;101500.56;5051605;28;20051;-56
2023/04/07 07:04:57;;;;;;;49.75;27.85;;;;;;;7.08;100.00;101501.44;5052937;28;20025;-55
2023/04/07 07:07:24;;;;;;;51.10;26.33;;;;;;;7.14;100.00;101510.25;5052474;28;20021;-56
2023/04/07 07:09:50;;;;;;;50.45;26.73;;;;;;;7.19;100.00;101511.41;5051886;28;20023;-55
2023/04/07 07:12:16;;;;;;;45.65;25.20;;;;;;;7.27;100.00;101511.81;5052586;28;20396;-57
2023/04/07 07:14:42;;;;;;;45.28;23.40;;;;;;;7.31;100.00;101513.72;5052736;28;20099;-56
2023/04/07 07:17:07;;;;;;;39.65;23.38;;;;;;;7.41;100.00;101516.00;5051756;28;20113;-56
2023/04/07 07:19:36;;;;;;;37.50;21.50;;;;;;;7.46;100.00;101522.25;5052466;28;20118;-57
2023/04/07 07:22:03;;;;;;;39.10;21.85;;;;;;;7.62;100.00;101515.34;5052513;28;20029;-56
2023/04/07 07:24:28;;;;;;;39.03;22.02;;;;;;;7.84;100.00;101520.81;5051480;28;20017;-56
2023/04/07 07:26:54;;;;;;;32.20;18.52;;;;;;;7.93;100.00;101520.41;5052725;28;20051;-56
2023/04/07 07:29:19;;;;;;;29.42;17.65;;;;;;;7.95;100.00;101521.34;5051444;28;20056;-56
2023/04/07 07:31:44;;;;;;;27.02;15.35;;;;;;;7.95;100.00;101523.06;5052703;28;20468;-56
2023/04/07 07:34:09;;;;;;;26.08;15.20;;;;;;;8.02;100.00;101526.00;5052714;28;20021;-57
2023/04/07 07:36:35;;;;;;;28.67;12.98;;;;;;;8.01;100.00;101525.94;5051458;28;20080;-56
2023/04/07 07:39:00;;;;;;;25.05;13.02;;;;;;;8.15;100.00;101534.34;5052364;28;20032;-56
2023/04/07 07:41:26;;;;;;;20.52;12.77;;;;;;;8.28;100.00;101533.28;5052271;28;20021;-56
2023/04/07 07:43:51;;;;;;;21.73;13.13;;;;;;;8.30;100.00;101540.25;5051838;28;20029;-56
2023/04/07 07:46:17;;;;;;;24.85;12.00;;;;;;;8.26;100.00;101547.72;5052238;28;20044;-57
2023/04/07 07:48:42;;;;;;;22.27;10.45;;;;;;;8.15;100.00;101545.47;5052580;28;20384;-57
2023/04/07 07:51:07;;;;;;;18.92;10.07;;;;;;;8.16;100.00;101544.69;5051765;28;20071;-57
2023/04/07 07:53:32;;;;;;;17.38;8.45;;;;;;;8.14;100.00;101550.56;5053313;28;20369;-56
2023/04/07 07:55:58;;;;;;;14.60;8.02;;;;;;;8.21;100.00;101556.06;5056390;28;20060;-57
2023/04/07 07:58:23;;;;;;;12.88;7.03;;;;;;;8.20;100.00;101551.72;5055235;28;20033;-57
2023/04/07 08:00:49;;;;;;;16.10;7.45;;;;;;;8.21;100.00;101561.22;5056027;28;20082;-57
2023/04/07 08:03:15;;;;;;;14.77;7.15;;;;;;;8.27;100.00;101557.19;5055964;28;20428;-56
2023/04/07 08:05:41;;;;;;;14.18;7.63;;;;;;;8.33;100.00;101562.63;5055329;28;20086;-55
2023/04/07 08:08:07;;;;;;;13.65;6.80;;;;;;;8.28;100.00;101556.38;5055951;28;20024;-54
2023/04/07 08:10:32;;;;;;;14.23;6.30;;;;;;;8.34;100.00;101556.66;5055893;28;20431;-55
2023/04/07 08:12:57;;;;;;;13.43;5.57;;;;;;;8.41;100.00;101564.75;5055055;28;20112;-54
2023/04/07 08:15:23;;;;;;;11.18;6.57;;;;;;;8.54;100.00;101568.84;5055491;28;20029;-54
2023/04/07 08:17:48;;;;;;;13.75;6.60;;;;;;;8.80;100.00;101558.97;5055773;28;20029;-55
2023/04/07 08:20:15;;;;;;;14.68;6.57;;;;;;;8.90;100.00;101560.31;5055042;28;20107;-54
2023/04/07 08:22:41;;;;;;;13.15;6.25;;;;;;;8.92;100.00;101580.94;5055536;28;20384;-54
2023/04/07 08:25:07;;;;;;;13.35;6.40;;;;;;;8.71;100.00;101573.94;5055806;28;20096;-55
2023/04/07 08:27:33;;;;;;;12.18;6.25;;;;;;;8.70;100.00;101577.31;5054479;28;20124;-55
2023/04/07 08:30:05;;;;;;;14.35;6.43;;;;;;;8.64;100.00;101577.91;5055742;28;20033;-55
2023/04/07 08:32:39;;;;;;;16.52;6.70;;;;;;;8.62;100.00;101583.78;5054598;28;20040;-55
2023/04/07 08:35:04;;;;;;;14.75;6.63;;;;;;;8.63;100.00;101590.69;5055612;28;20017;-56
2023/04/07 08:37:30;;;;;;;14.75;6.30;;;;;;;8.64;100.00;101595.03;5055177;28;20821;-55
2023/04/07 08:39:56;;;;;;;14.18;6.15;;;;;;;8.60;100.00;101591.41;5054841;28;20017;-55
2023/04/07 08:42:26;;;;;;;12.55;5.22;;;;;;;8.68;100.00;101599.50;5055272;28;20024;-56
2023/04/07 08:44:52;;;;;;;10.48;4.43;;;;;;;8.74;100.00;101599.81;5055450;28;20033;-56
2023/04/07 08:47:19;;;;;;;12.32;4.20;;;;;;;9.08;100.00;101588.59;5054398;28;20027;-56
2023/04/07 08:49:48;;;;;;;12.70;4.63;;;;;;;9.38;100.00;101601.13;5055106;28;20025;-56
2023/04/07 08:52:15;;;;;;;10.63;3.20;;;;;;;9.39;100.00;101597.75;5055121;28;20472;-57
2023/04/07 08:54:40;;;;;;;11.55;3.70;;;;;;;9.57;100.00;101602.84;5054796;28;20020;-56
2023/04/07 08:57:07;;;;;;;11.40;3.70;;;;;;;9.36;100.00;101602.72;5055234;28;20071;-54
2023/04/07 08:59:33;;;;;;;10.88;3.28;;;;;;;9.50;100.00;101609.41;5054784;28;20089;-57
2023/04/07 09:01:59;;;;;;;10.05;3.60;;;;;;;9.52;100.00;101605.19;5054056;28;20036;-56
2023/04/07 09:04:26;;;;;;;11.00;3.50;;;;;;;9.72;100.00;101603.56;5054316;28;20032;-57
2023/04/07 09:06:51;;;;;;;10.70;3.53;;;;;;;9.72;100.00;101607.81;5054587;28;20049;-56
2023/04/07 09:09:17;;;;;;;12.07;3.47;;;;;;;9.83;100.00;101609.16;5053925;28;20112;-56
2023/04/07 09:11:42;;;;;;;11.05;3.15;;;;;;;9.77;100.00;101606.31;5054921;28;20127;-56
2023/04/07 09:14:07;;;;;;;8.88;2.92;;;;;;;9.78;100.00;101613.22;5054666;28;20023;-56
2023/04/07 09:16:33;;;;;;;10.80;3.72;;;;;;;9.74;100.00;101610.47;5053537;28;20068;-57
2023/04/07 09:18:59;;;;;;;10.93;3.38;;;;;;;9.68;100.00;101611.06;5054573;28;20487;-56
2023/04/07 09:21:25;;;;;;;12.55;4.18;;;;;;;9.60;100.00;101622.69;5054429;28;20032;-57
2023/04/07 09:23:51;;;;;;;8.70;4.20;;;;;;;9.49;100.00;101620.50;5053777;28;20378;-56
2023/04/07 09:26:16;;;;;;;10.68;5.00;;;;;;;9.33;100.00;101618.03;5054460;28;20162;-57
2023/04/07 09:28:44;;;;;;;13.43;4.87;;;;;;;9.28;100.00;101624.66;5054434;28;20028;-56
2023/04/07 09:31:09;;;;;;;13.50;4.78;;;;;;;9.14;100.00;101632.59;5054135;28;20264;-57
2023/04/07 09:33:35;;;;;;;11.55;4.75;;;;;;;9.08;100.00;101622.00;5054152;28;20579;-57
2023/04/07 09:36:01;;;;;;;23.52;5.70;;;;;;;9.05;100.00;101627.88;5053758;28;20096;-57
2023/04/07 09:38:34;;;;;;;19.13;5.50;;;;;;;9.19;100.00;101620.84;5053943;28;20163;-57
2023/04/07 09:41:07;;;;;;;12.85;5.35;;;;;;;9.06;100.00;101623.63;5054524;28;20053;-56
2023/04/07 09:43:35;;;;;;;11.15;4.80;;;;;;;9.08;100.00;101624.59;5053095;28;20025;-57
2023/04/07 09:46:13;;;;;;;;;;;;;;;9.33;100.00;101629.19;5054381;28;20021;-55
2023/04/07 09:48:39;;;;;;;12.95;5.03;;;;;;;9.21;100.00;101619.22;5053783;28;20378;-55
2023/04/07 09:51:13;;;;;;;17.83;5.43;;;;;;;9.18;100.00;101613.94;5053350;28;20020;-55
2023/04/07 09:53:47;;;;;;;14.57;4.97;;;;;;;9.35;100.00;101621.56;5053875;28;20381;-58
2023/04/07 09:56:17;;;;;;;15.13;4.90;;;;;;;9.39;100.00;101624.34;5053975;28;20082;-56
2023/04/07 09:58:45;;;;;;;10.90;4.40;;;;;;;9.37;100.00;101619.94;5052997;28;20025;-56
2023/04/07 10:01:12;;;;;;;13.43;4.10;;;;;;;9.31;100.00;101627.34;5053714;28;20432;-56
2023/04/07 10:03:38;;;;;;;12.95;4.30;;;;;;;9.18;100.00;101628.47;5053466;28;20041;-56
2023/04/07 10:06:05;;;;;;;10.80;4.90;;;;;;;9.04;100.00;101638.97;5052973;28;20504;-56
2023/04/07 10:08:32;;;;;;;13.82;5.38;;;;;;;8.83;100.00;101633.69;5053437;28;20032;-57
2023/04/07 10:11:00;;;;;;;20.60;6.10;;;;;;;8.69;100.00;101637.25;5053281;28;20472;-56
2023/04/07 10:13:27;;;;;;;19.25;4.80;;;;;;;8.56;100.00;101640.91;5053506;28;20024;-56
2023/04/07 10:15:54;;;;;;;16.77;4.90;;;;;;;8.50;100.00;101644.03;5053462;28;20507;-56
2023/04/07 10:18:21;;;;;;;14.32;4.30;;;;;;;8.44;100.00;101653.94;5051749;28;20806;-56
2023/04/07 10:20:48;;;;;;;;;;;;;;;8.62;100.00;101648.03;5053770;28;20365;-56
2023/04/07 10:23:21;;;;;;;13.32;4.55;;;;;;;8.51;100.00;101658.63;5053513;28;19916;-56
2023/04/07 10:25:51;;;;;;;21.33;5.30;;;;;;;8.64;100.00;101649.88;5052761;28;20032;-57
2023/04/07 10:28:20;;;;;;;16.50;4.85;;;;;;;8.74;100.00;101656.34;5053272;28;20116;-57
2023/04/07 10:30:47;;;;;;;14.65;4.60;;;;;;;8.76;100.00;101659.88;5053417;28;20035;-57
2023/04/07 10:33:12;;;;;;;14.75;4.65;;;;;;;8.96;100.00;101659.97;5052615;28;20029;-57
2023/04/07 10:36:04;;;;;;;13.00;4.30;;;;;;;9.20;100.00;101668.00;5053049;28;20039;-56
2023/04/07 10:38:30;;;;;;;13.57;3.90;;;;;;;9.43;100.00;101665.66;5052970;28;20029;-56
2023/04/07 10:40:56;;;;;;;11.75;4.05;;;;;;;9.42;100.00;101659.63;5052481;28;20025;-56
2023/04/07 10:43:40;;;;;;;13.45;5.30;;;;;;;9.47;100.00;101662.41;5052895;28;20485;-57
2023/04/07 10:46:06;;;;;;;9.73;3.95;;;;;;;9.39;100.00;101662.94;5053130;28;20033;-56
2023/04/07 10:48:35;;;;;;;15.13;5.07;;;;;;;9.40;100.00;101656.13;5052344;28;20082;-56
2023/04/07 10:51:03;;;;;;;13.15;4.57;;;;;;;9.48;100.00;101666.75;5053253;28;20100;-56
2023/04/07 10:53:30;;;;;;;15.02;5.50;;;;;;;9.51;100.00;101672.91;5051950;28;20036;-56
2023/04/07 10:55:56;;;;;;;16.42;5.10;;;;;;;9.36;100.00;101672.19;5053125;28;20021;-56
2023/04/07 10:58:32;;;;;;;16.80;5.47;;;;;;;9.29;100.00;101672.72;5052423;28;20447;-57
2023/04/07 11:00:57;;;;;;;15.15;5.22;;;;;;;9.15;100.00;101672.03;5052096;28;20040;-54
2023/04/07 11:03:23;;;;;;;19.90;5.80;;;;;;;9.15;100.00;101675.47;5052287;28;20049;-56
2023/04/07 11:05:49;;;;;;;21.90;5.90;;;;;;;9.09;100.00;101675.22;5052726;28;20040;-56
2023/04/07 11:08:30;;;;;;;18.77;5.72;;;;;;;9.06;100.00;101677.63;5051888;28;20058;-56
2023/04/07 11:10:55;;;;;;;16.90;4.85;;;;;;;9.19;100.00;101674.84;5052820;28;20107;-57